sensor_id;sensor_type;location;lat;lon;timestamp;pressure;altitude;pressure_sealevel;temperature;humidity
29383;BME280;16365;51.598;7.668;2023-03-20T00:01:17;101187.03;;;17.84;45.96
29383;BME280;16365;51.598;7.668;2023-03-20T00:03:44;101172.94;;;17.80;45.60
29383;BME280;16365;51.598;7.668;2023-03-20T00:06:22;101175.91;;;17.71;45.76
29383;BME280;16365;51.598;7.668;2023-03-20T00:08:51;101187.94;;;17.72;45.88
29383;BME280;16365;51.598;7.668;2023-03-20T00:11:26;101183.81;;;17.66;46.04
29383;BME280;16365;51.598;7.668;2023-03-20T00:14:01;101191.75;;;17.64;45.65
29383;BME280;16365;51.598;7.668;2023-03-20T00:16:37;101194.41;;;17.57;46.48
29383;BME280;16365;51.598;7.668;2023-03-20T00:19:04;101199.53;;;17.55;45.86
29383;BME280;16365;51.598;7.668;2023-03-20T00:21:33;101201.91;;;17.53;46.14
29383;BME280;16365;51.598;7.668;2023-03-20T00:24:00;101200.19;;;17.48;46.09
29383;BME280;16365;51.598;7.668;2023-03-20T00:26:31;101202.09;;;17.44;46.64
29383;BME280;16365;51.598;7.668;2023-03-20T00:28:58;101201.19;;;17.40;46.17
29383;BME280;16365;51.598;7.668;2023-03-20T00:31:29;101206.72;;;17.36;46.41
29383;BME280;16365;51.598;7.668;2023-03-20T00:33:58;101199.75;;;17.30;46.36
29383;BME280;16365;51.598;7.668;2023-03-20T00:36:26;101198.50;;;17.28;46.27
29383;BME280;16365;51.598;7.668;2023-03-20T00:38:53;101202.38;;;17.23;46.92
29383;BME280;16365;51.598;7.668;2023-03-20T00:42:15;101195.06;;;17.18;47.14
29383;BME280;16365;51.598;7.668;2023-03-20T00:46:57;101205.34;;;17.14;46.93
29383;BME280;16365;51.598;7.668;2023-03-20T00:49:27;101202.91;;;17.13;46.91
29383;BME280;16365;51.598;7.668;2023-03-20T00:51:54;101200.03;;;17.09;47.16
29383;BME280;16365;51.598;7.668;2023-03-20T00:54:21;101207.16;;;17.07;46.75
29383;BME280;16365;51.598;7.668;2023-03-20T00:56:55;101201.47;;;17.03;46.98
29383;BME280;16365;51.598;7.668;2023-03-20T00:59:28;101201.00;;;17.01;46.50
29383;BME280;16365;51.598;7.668;2023-03-20T01:01:58;101200.91;;;16.98;46.25
29383;BME280;16365;51.598;7.668;2023-03-20T01:04:29;101194.75;;;16.92;46.38
29383;BME280;16365;51.598;7.668;2023-03-20T01:06:57;101195.81;;;16.87;45.99
29383;BME280;16365;51.598;7.668;2023-03-20T01:09:24;101200.88;;;16.82;46.69
29383;BME280;16365;51.598;7.668;2023-03-20T01:11:51;101199.16;;;16.77;46.35
29383;BME280;16365;51.598;7.668;2023-03-20T01:14:19;101195.47;;;16.73;46.81
29383;BME280;16365;51.598;7.668;2023-03-20T01:16:45;101193.69;;;16.68;46.84
29383;BME280;16365;51.598;7.668;2023-03-20T01:19:13;101196.84;;;16.67;46.62
29383;BME280;16365;51.598;7.668;2023-03-20T01:21:42;101196.03;;;16.66;46.82
29383;BME280;16365;51.598;7.668;2023-03-20T01:24:09;101195.13;;;16.62;46.59
29383;BME280;16365;51.598;7.668;2023-03-20T01:26:38;101202.25;;;16.60;46.79
29383;BME280;16365;51.598;7.668;2023-03-20T01:29:24;101205.31;;;16.55;47.66
29383;BME280;16365;51.598;7.668;2023-03-20T01:31:52;101208.19;;;16.58;47.23
29383;BME280;16365;51.598;7.668;2023-03-20T01:34:19;101210.53;;;16.56;46.60
29383;BME280;16365;51.598;7.668;2023-03-20T01:36:54;101214.41;;;16.52;46.94
29383;BME280;16365;51.598;7.668;2023-03-20T01:39:32;101210.81;;;16.51;47.21
29383;BME280;16365;51.598;7.668;2023-03-20T01:42:01;101213.59;;;16.51;46.97
29383;BME280;16365;51.598;7.668;2023-03-20T01:44:29;101219.56;;;16.50;47.05
29383;BME280;16365;51.598;7.668;2023-03-20T01:46:57;101224.69;;;16.48;46.76
29383;BME280;16365;51.598;7.668;2023-03-20T01:51:55;101224.94;;;16.42;46.96
29383;BME280;16365;51.598;7.668;2023-03-20T01:54:23;101225.75;;;16.43;47.13
29383;BME280;16365;51.598;7.668;2023-03-20T01:57:10;101231.25;;;16.39;47.11
29383;BME280;16365;51.598;7.668;2023-03-20T01:59:52;101233.13;;;16.35;46.90
29383;BME280;16365;51.598;7.668;2023-03-20T02:02:24;101233.47;;;16.34;46.71
29383;BME280;16365;51.598;7.668;2023-03-20T02:04:56;101236.19;;;16.30;47.00
29383;BME280;16365;51.598;7.668;2023-03-20T02:07:24;101243.28;;;16.28;46.68
29383;BME280;16365;51.598;7.668;2023-03-20T02:09:51;101238.41;;;16.25;46.69
29383;BME280;16365;51.598;7.668;2023-03-20T02:12:18;101236.78;;;16.24;46.34
29383;BME280;16365;51.598;7.668;2023-03-20T02:14:45;101230.72;;;16.22;46.80
29383;BME280;16365;51.598;7.668;2023-03-20T02:17:13;101226.75;;;16.23;46.73
29383;BME280;16365;51.598;7.668;2023-03-20T02:25:38;101222.69;;;16.20;46.73
29383;BME280;16365;51.598;7.668;2023-03-20T02:40:22;101240.06;;;16.13;46.91
29383;BME280;16365;51.598;7.668;2023-03-20T02:45:52;101231.91;;;16.08;46.83
29383;BME280;16365;51.598;7.668;2023-03-20T02:48:32;101237.16;;;16.10;46.90
29383;BME280;16365;51.598;7.668;2023-03-20T02:53:52;101233.44;;;16.06;46.64
29383;BME280;16365;51.598;7.668;2023-03-20T03:02:07;101224.47;;;16.00;46.62
29383;BME280;16365;51.598;7.668;2023-03-20T03:04:37;101231.22;;;15.99;46.42
29383;BME280;16365;51.598;7.668;2023-03-20T03:07:06;101234.84;;;16.00;46.65
29383;BME280;16365;51.598;7.668;2023-03-20T03:09:42;101235.56;;;15.97;46.70
29383;BME280;16365;51.598;7.668;2023-03-20T03:12:15;101246.75;;;15.97;46.34
29383;BME280;16365;51.598;7.668;2023-03-20T03:14:46;101242.31;;;15.96;46.32
29383;BME280;16365;51.598;7.668;2023-03-20T03:17:15;101238.69;;;15.95;46.41
29383;BME280;16365;51.598;7.668;2023-03-20T03:19:45;101244.63;;;15.93;46.60
29383;BME280;16365;51.598;7.668;2023-03-20T03:22:15;101240.22;;;15.92;46.43
29383;BME280;16365;51.598;7.668;2023-03-20T03:24:44;101253.38;;;15.92;46.45
29383;BME280;16365;51.598;7.668;2023-03-20T03:27:24;101246.88;;;15.88;46.72
29383;BME280;16365;51.598;7.668;2023-03-20T03:29:56;101250.91;;;15.90;46.54
29383;BME280;16365;51.598;7.668;2023-03-20T03:32:30;101258.50;;;15.90;46.75
29383;BME280;16365;51.598;7.668;2023-03-20T03:34:59;101251.75;;;15.91;46.45
29383;BME280;16365;51.598;7.668;2023-03-20T03:37:39;101242.91;;;15.89;46.75
29383;BME280;16365;51.598;7.668;2023-03-20T03:40:17;101242.53;;;15.90;46.52
29383;BME280;16365;51.598;7.668;2023-03-20T03:42:59;101245.34;;;15.90;46.23
29383;BME280;16365;51.598;7.668;2023-03-20T03:45:31;101239.75;;;15.90;46.52
29383;BME280;16365;51.598;7.668;2023-03-20T03:48:04;101222.16;;;15.90;46.44
29383;BME280;16365;51.598;7.668;2023-03-20T03:50:44;101219.25;;;15.86;46.19
29383;BME280;16365;51.598;7.668;2023-03-20T03:53:21;101208.88;;;15.87;46.09
29383;BME280;16365;51.598;7.668;2023-03-20T03:55:53;101201.31;;;15.87;45.96
29383;BME280;16365;51.598;7.668;2023-03-20T03:58:24;101201.69;;;15.86;45.90
29383;BME280;16365;51.598;7.668;2023-03-20T04:00:53;101208.06;;;15.86;45.82
29383;BME280;16365;51.598;7.668;2023-03-20T04:03:24;101200.03;;;15.85;46.05
29383;BME280;16365;51.598;7.668;2023-03-20T04:05:55;101197.69;;;15.87;45.78
29383;BME280;16365;51.598;7.668;2023-03-20T04:08:23;101202.94;;;15.88;45.98
29383;BME280;16365;51.598;7.668;2023-03-20T04:10:50;101201.75;;;15.89;45.51
29383;BME280;16365;51.598;7.668;2023-03-20T04:13:16;101197.47;;;15.92;45.65
29383;BME280;16365;51.598;7.668;2023-03-20T04:15:43;101191.06;;;15.91;45.62
29383;BME280;16365;51.598;7.668;2023-03-20T04:18:14;101185.47;;;15.91;45.31
29383;BME280;16365;51.598;7.668;2023-03-20T04:20:43;101183.47;;;15.92;45.09
29383;BME280;16365;51.598;7.668;2023-03-20T04:23:10;101199.09;;;15.93;45.24
29383;BME280;16365;51.598;7.668;2023-03-20T04:25:36;101201.88;;;15.93;45.35
29383;BME280;16365;51.598;7.668;2023-03-20T04:28:03;101205.97;;;15.96;45.17
29383;BME280;16365;51.598;7.668;2023-03-20T04:30:30;101205.97;;;15.96;45.11
29383;BME280;16365;51.598;7.668;2023-03-20T04:32:56;101211.19;;;15.97;44.79
29383;BME280;16365;51.598;7.668;2023-03-20T04:35:23;101209.56;;;15.96;45.04
29383;BME280;16365;51.598;7.668;2023-03-20T04:37:50;101203.97;;;15.96;44.89
29383;BME280;16365;51.598;7.668;2023-03-20T04:40:16;101203.16;;;15.96;44.81
29383;BME280;16365;51.598;7.668;2023-03-20T04:42:43;101207.91;;;15.95;44.62
29383;BME280;16365;51.598;7.668;2023-03-20T04:45:09;101209.09;;;15.94;44.43
29383;BME280;16365;51.598;7.668;2023-03-20T04:47:36;101205.84;;;15.92;44.51
29383;BME280;16365;51.598;7.668;2023-03-20T04:50:03;101200.94;;;15.89;44.47
29383;BME280;16365;51.598;7.668;2023-03-20T04:52:29;101196.09;;;15.86;44.54
29383;BME280;16365;51.598;7.668;2023-03-20T04:54:56;101190.81;;;15.84;44.35
29383;BME280;16365;51.598;7.668;2023-03-20T04:57:22;101193.16;;;15.82;44.22
29383;BME280;16365;51.598;7.668;2023-03-20T04:59:49;101184.31;;;15.80;44.44
29383;BME280;16365;51.598;7.668;2023-03-20T05:02:15;101186.66;;;15.78;44.48
29383;BME280;16365;51.598;7.668;2023-03-20T05:04:43;101184.22;;;15.77;44.55
29383;BME280;16365;51.598;7.668;2023-03-20T05:07:09;101184.22;;;15.77;44.44
29383;BME280;16365;51.598;7.668;2023-03-20T05:09:35;101185.34;;;15.76;44.52
29383;BME280;16365;51.598;7.668;2023-03-20T05:12:02;101188.16;;;15.76;44.29
29383;BME280;16365;51.598;7.668;2023-03-20T05:14:29;101186.53;;;15.75;44.27
29383;BME280;16365;51.598;7.668;2023-03-20T05:16:55;101181.75;;;15.75;44.50
29383;BME280;16365;51.598;7.668;2023-03-20T05:19:22;101184.09;;;15.73;44.47
29383;BME280;16365;51.598;7.668;2023-03-20T05:21:48;101192.47;;;15.73;44.69
29383;BME280;16365;51.598;7.668;2023-03-20T05:24:15;101187.25;;;15.72;44.58
29383;BME280;16365;51.598;7.668;2023-03-20T05:26:41;101192.00;;;15.71;44.45
29383;BME280;16365;51.598;7.668;2023-03-20T05:29:08;101193.97;;;15.71;44.57
29383;BME280;16365;51.598;7.668;2023-03-20T05:31:35;101193.16;;;15.70;44.67
29383;BME280;16365;51.598;7.668;2023-03-20T05:34:01;101179.56;;;15.68;44.51
29383;BME280;16365;51.598;7.668;2023-03-20T05:36:28;101191.09;;;15.67;44.47
29383;BME280;16365;51.598;7.668;2023-03-20T05:38:54;101197.81;;;15.66;44.64
29383;BME280;16365;51.598;7.668;2023-03-20T05:41:21;101194.56;;;15.64;44.66
29383;BME280;16365;51.598;7.668;2023-03-20T05:43:47;101196.06;;;15.61;44.85
29383;BME280;16365;51.598;7.668;2023-03-20T05:46:14;101200.81;;;15.61;44.88
29383;BME280;16365;51.598;7.668;2023-03-20T05:48:41;101206.78;;;15.59;44.85
29383;BME280;16365;51.598;7.668;2023-03-20T05:51:08;101211.56;;;15.59;44.58
29383;BME280;16365;51.598;7.668;2023-03-20T05:53:34;101207.94;;;15.58;45.09
29383;BME280;16365;51.598;7.668;2023-03-20T05:56:00;101200.72;;;15.57;45.20
29383;BME280;16365;51.598;7.668;2023-03-20T05:58:27;101193.16;;;15.58;44.94
29383;BME280;16365;51.598;7.668;2023-03-20T06:00:56;101197.09;;;15.57;44.70
29383;BME280;16365;51.598;7.668;2023-03-20T06:03:23;101213.06;;;15.56;44.92
29383;BME280;16365;51.598;7.668;2023-03-20T06:05:49;101217.03;;;15.55;44.90
29383;BME280;16365;51.598;7.668;2023-03-20T06:08:16;101215.03;;;15.56;44.86
29383;BME280;16365;51.598;7.668;2023-03-20T06:10:43;101217.38;;;15.54;44.79
29383;BME280;16365;51.598;7.668;2023-03-20T06:13:09;101210.97;;;15.53;45.12
29383;BME280;16365;51.598;7.668;2023-03-20T06:15:36;101220.19;;;15.54;45.12
29383;BME280;16365;51.598;7.668;2023-03-20T06:18:04;101219.38;;;15.53;45.09
29383;BME280;16365;51.598;7.668;2023-03-20T06:20:30;101207.69;;;15.51;45.12
29383;BME280;16365;51.598;7.668;2023-03-20T06:22:57;101210.16;;;15.53;45.25
29383;BME280;16365;51.598;7.668;2023-03-20T06:25:24;101216.91;;;15.52;45.06
29383;BME280;16365;51.598;7.668;2023-03-20T06:27:54;101222.84;;;15.50;44.78
29383;BME280;16365;51.598;7.668;2023-03-20T06:30:20;101223.66;;;15.51;45.12
29383;BME280;16365;51.598;7.668;2023-03-20T06:32:47;101220.41;;;15.49;45.45
29383;BME280;16365;51.598;7.668;2023-03-20T06:35:13;101218.06;;;15.51;45.15
29383;BME280;16365;51.598;7.668;2023-03-20T06:37:40;101220.84;;;15.51;44.95
29383;BME280;16365;51.598;7.668;2023-03-20T06:40:07;101226.13;;;15.52;45.05
29383;BME280;16365;51.598;7.668;2023-03-20T06:42:33;101227.75;;;15.53;45.16
29383;BME280;16365;51.598;7.668;2023-03-20T06:45:00;101240.91;;;15.53;44.89
29383;BME280;16365;51.598;7.668;2023-03-20T06:47:28;101241.72;;;15.53;45.03
29383;BME280;16365;51.598;7.668;2023-03-20T06:49:54;101238.13;;;15.53;45.04
29383;BME280;16365;51.598;7.668;2023-03-20T06:52:21;101244.53;;;15.53;44.87
29383;BME280;16365;51.598;7.668;2023-03-20T06:54:47;101242.91;;;15.52;44.91
29383;BME280;16365;51.598;7.668;2023-03-20T06:57:16;101244.16;;;15.55;45.32
29383;BME280;16365;51.598;7.668;2023-03-20T06:59:43;101241.38;;;15.55;45.20
29383;BME280;16365;51.598;7.668;2023-03-20T07:02:12;101258.13;;;15.55;44.99
29383;BME280;16365;51.598;7.668;2023-03-20T07:04:39;101250.19;;;15.57;45.03
29383;BME280;16365;51.598;7.668;2023-03-20T07:07:06;101245.44;;;15.57;44.91
29383;BME280;16365;51.598;7.668;2023-03-20T07:09:32;101249.38;;;15.56;44.90
29383;BME280;16365;51.598;7.668;2023-03-20T07:12:02;101253.84;;;15.57;44.89
29383;BME280;16365;51.598;7.668;2023-03-20T07:14:29;101256.97;;;15.56;44.96
29383;BME280;16365;51.598;7.668;2023-03-20T07:16:56;101258.59;;;15.57;44.81
29383;BME280;16365;51.598;7.668;2023-03-20T07:19:26;101261.75;;;15.55;44.78
29383;BME280;16365;51.598;7.668;2023-03-20T07:22:01;101259.66;;;15.52;44.55
29383;BME280;16365;51.598;7.668;2023-03-20T07:24:37;101266.88;;;15.53;44.60
29383;BME280;16365;51.598;7.668;2023-03-20T07:27:12;101273.63;;;15.52;44.66
29383;BME280;16365;51.598;7.668;2023-03-20T07:29:43;101277.94;;;15.50;44.66
29383;BME280;16365;51.598;7.668;2023-03-20T07:32:11;101274.78;;;15.51;44.82
29383;BME280;16365;51.598;7.668;2023-03-20T07:34:37;101281.31;;;15.55;44.64
29383;BME280;16365;51.598;7.668;2023-03-20T07:37:04;101284.09;;;15.55;44.58
29383;BME280;16365;51.598;7.668;2023-03-20T07:39:31;101286.06;;;15.55;44.58
29383;BME280;16365;51.598;7.668;2023-03-20T07:42:00;101289.69;;;15.55;44.59
29383;BME280;16365;51.598;7.668;2023-03-20T07:44:26;101288.88;;;15.55;44.41
29383;BME280;16365;51.598;7.668;2023-03-20T07:46:53;101278.88;;;15.54;44.79
29383;BME280;16365;51.598;7.668;2023-03-20T07:49:19;101273.28;;;15.54;44.66
29383;BME280;16365;51.598;7.668;2023-03-20T07:51:47;101267.31;;;15.55;44.75
29383;BME280;16365;51.598;7.668;2023-03-20T07:54:14;101274.66;;;15.60;44.85
29383;BME280;16365;51.598;7.668;2023-03-20T07:56:41;101274.47;;;15.65;44.59
29383;BME280;16365;51.598;7.668;2023-03-20T07:59:08;101269.38;;;15.67;44.61
29383;BME280;16365;51.598;7.668;2023-03-20T08:01:35;101271.13;;;15.72;44.52
29383;BME280;16365;51.598;7.668;2023-03-20T08:04:01;101276.00;;;15.75;44.48
29383;BME280;16365;51.598;7.668;2023-03-20T08:06:28;101281.34;;;15.80;44.32
29383;BME280;16365;51.598;7.668;2023-03-20T08:08:57;101286.69;;;15.85;44.40
29383;BME280;16365;51.598;7.668;2023-03-20T08:11:23;101279.25;;;15.89;44.15
29383;BME280;16365;51.598;7.668;2023-03-20T08:13:50;101282.63;;;15.94;43.88
29383;BME280;16365;51.598;7.668;2023-03-20T08:16:16;101277.16;;;15.98;43.96
29383;BME280;16365;51.598;7.668;2023-03-20T08:18:45;101275.28;;;16.02;43.70
29383;BME280;16365;51.598;7.668;2023-03-20T08:21:19;101275.41;;;16.06;43.84
29383;BME280;16365;51.598;7.668;2023-03-20T08:23:45;101274.34;;;16.10;43.33
29383;BME280;16365;51.598;7.668;2023-03-20T08:26:12;101276.78;;;16.12;43.43
29383;BME280;16365;51.598;7.668;2023-03-20T08:28:39;101285.63;;;16.14;43.38
29383;BME280;16365;51.598;7.668;2023-03-20T08:31:15;101284.47;;;16.15;42.73
29383;BME280;16365;51.598;7.668;2023-03-20T08:33:46;101294.13;;;16.17;42.85
29383;BME280;16365;51.598;7.668;2023-03-20T08:36:14;101292.97;;;16.18;42.62
29383;BME280;16365;51.598;7.668;2023-03-20T08:38:41;101297.38;;;16.19;42.74
29383;BME280;16365;51.598;7.668;2023-03-20T08:41:12;101296.56;;;16.19;42.22
29383;BME280;16365;51.598;7.668;2023-03-20T08:43:39;101289.84;;;16.20;42.44
29383;BME280;16365;51.598;7.668;2023-03-20T08:46:07;101301.84;;;16.21;42.33
29383;BME280;16365;51.598;7.668;2023-03-20T08:48:36;101296.69;;;16.23;42.32
29383;BME280;16365;51.598;7.668;2023-03-20T08:51:03;101289.94;;;16.24;42.44
29383;BME280;16365;51.598;7.668;2023-03-20T08:53:30;101290.75;;;16.24;42.11
29383;BME280;16365;51.598;7.668;2023-03-20T08:55:58;101293.22;;;16.26;42.41
29383;BME280;16365;51.598;7.668;2023-03-20T08:58:25;101285.16;;;16.24;42.04
29383;BME280;16365;51.598;7.668;2023-03-20T09:00:52;101293.66;;;16.28;41.89
29383;BME280;16365;51.598;7.668;2023-03-20T09:03:20;101308.94;;;16.30;41.97
29383;BME280;16365;51.598;7.668;2023-03-20T09:05:48;101299.72;;;16.30;41.93
29383;BME280;16365;51.598;7.668;2023-03-20T09:08:19;101299.38;;;16.31;42.05
29383;BME280;16365;51.598;7.668;2023-03-20T09:10:48;101302.97;;;16.32;41.54
29383;BME280;16365;51.598;7.668;2023-03-20T09:13:18;101300.63;;;16.34;41.75
29383;BME280;16365;51.598;7.668;2023-03-20T09:15:54;101300.31;;;16.35;41.59
29383;BME280;16365;51.598;7.668;2023-03-20T09:18:21;101287.56;;;16.38;41.49
29383;BME280;16365;51.598;7.668;2023-03-20T09:20:48;101290.59;;;16.45;41.40
29383;BME280;16365;51.598;7.668;2023-03-20T09:23:15;101288.63;;;16.45;41.57
29383;BME280;16365;51.598;7.668;2023-03-20T09:25:42;101292.66;;;16.48;41.45
29383;BME280;16365;51.598;7.668;2023-03-20T09:28:10;101292.66;;;16.48;41.57
29383;BME280;16365;51.598;7.668;2023-03-20T09:30:36;101289.19;;;16.51;41.18
29383;BME280;16365;51.598;7.668;2023-03-20T09:33:06;101302.81;;;16.53;41.04
29383;BME280;16365;51.598;7.668;2023-03-20T09:35:40;101301.66;;;16.54;40.73
29383;BME280;16365;51.598;7.668;2023-03-20T09:38:09;101296.97;;;16.58;40.91
29383;BME280;16365;51.598;7.668;2023-03-20T09:40:53;101295.34;;;16.57;40.07
29383;BME280;16365;51.598;7.668;2023-03-20T09:51:55;101294.97;;;16.58;39.69
29383;BME280;16365;51.598;7.668;2023-03-20T09:54:29;101296.50;;;16.56;40.20
29383;BME280;16365;51.598;7.668;2023-03-20T09:57:33;101297.69;;;16.55;39.62
29383;BME280;16365;51.598;7.668;2023-03-20T10:00:17;101299.31;;;16.56;39.24
29383;BME280;16365;51.598;7.668;2023-03-20T10:03:02;101303.72;;;16.57;39.55
29383;BME280;16365;51.598;7.668;2023-03-20T10:05:46;101307.00;;;16.59;39.22
29383;BME280;16365;51.598;7.668;2023-03-20T10:08:22;101298.69;;;16.62;39.51
29383;BME280;16365;51.598;7.668;2023-03-20T10:19:29;101293.47;;;16.61;38.96
29383;BME280;16365;51.598;7.668;2023-03-20T10:22:01;101296.72;;;16.63;39.03
29383;BME280;16365;51.598;7.668;2023-03-20T10:24:46;101294.16;;;16.58;38.83
29383;BME280;16365;51.598;7.668;2023-03-20T10:27:25;101293.72;;;16.56;38.86
29383;BME280;16365;51.598;7.668;2023-03-20T10:32:32;101301.28;;;16.55;39.13
29383;BME280;16365;51.598;7.668;2023-03-20T10:35:22;101290.47;;;16.54;39.04
29383;BME280;16365;51.598;7.668;2023-03-20T10:38:22;101287.41;;;16.59;39.20
29383;BME280;16365;51.598;7.668;2023-03-20T10:40:54;101287.50;;;16.62;39.25
29383;BME280;16365;51.598;7.668;2023-03-20T10:43:29;101280.38;;;16.65;38.79
29383;BME280;16365;51.598;7.668;2023-03-20T10:48:43;101274.69;;;16.74;39.11
29383;BME280;16365;51.598;7.668;2023-03-20T10:51:21;101270.34;;;16.76;38.50
29383;BME280;16365;51.598;7.668;2023-03-20T10:53:51;101270.44;;;16.80;38.54
29383;BME280;16365;51.598;7.668;2023-03-20T10:56:34;101272.44;;;16.79;38.25
29383;BME280;16365;51.598;7.668;2023-03-20T10:59:21;101266.34;;;16.77;37.86
29383;BME280;16365;51.598;7.668;2023-03-20T11:01:50;101272.88;;;16.81;38.81
29383;BME280;16365;51.598;7.668;2023-03-20T11:04:18;101266.47;;;16.81;38.51
29383;BME280;16365;51.598;7.668;2023-03-20T11:07:05;101259.59;;;16.78;38.06
29383;BME280;16365;51.598;7.668;2023-03-20T11:09:36;101255.25;;;16.81;37.48
29383;BME280;16365;51.598;7.668;2023-03-20T11:12:03;101262.97;;;16.84;38.12
29383;BME280;16365;51.598;7.668;2023-03-20T11:14:36;101266.94;;;16.83;37.39
29383;BME280;16365;51.598;7.668;2023-03-20T11:17:05;101252.19;;;16.86;37.88
29383;BME280;16365;51.598;7.668;2023-03-20T11:22:01;101260.25;;;16.87;37.85
29383;BME280;16365;51.598;7.668;2023-03-20T11:24:43;101262.59;;;16.85;37.22
29383;BME280;16365;51.598;7.668;2023-03-20T11:27:14;101254.28;;;16.89;37.61
29383;BME280;16365;51.598;7.668;2023-03-20T11:29:41;101247.16;;;16.91;37.79
29383;BME280;16365;51.598;7.668;2023-03-20T11:32:27;101247.53;;;16.90;36.86
29383;BME280;16365;51.598;7.668;2023-03-20T11:35:09;101238.75;;;16.91;37.15
29383;BME280;16365;51.598;7.668;2023-03-20T11:37:43;101248.81;;;16.92;37.56
29383;BME280;16365;51.598;7.668;2023-03-20T11:40:20;101239.22;;;16.93;37.24
29383;BME280;16365;51.598;7.668;2023-03-20T11:42:53;101232.00;;;16.92;37.04
29383;BME280;16365;51.598;7.668;2023-03-20T11:45:21;101226.41;;;16.92;37.56
29383;BME280;16365;51.598;7.668;2023-03-20T11:47:54;101229.09;;;16.89;36.73
29383;BME280;16365;51.598;7.668;2023-03-20T11:50:30;101232.72;;;16.89;37.13
29383;BME280;16365;51.598;7.668;2023-03-20T11:52:57;101230.34;;;16.91;37.60
29383;BME280;16365;51.598;7.668;2023-03-20T11:55:27;101219.94;;;16.92;37.32
29383;BME280;16365;51.598;7.668;2023-03-20T11:57:57;101222.53;;;16.97;37.08
29383;BME280;16365;51.598;7.668;2023-03-20T12:00:28;101220.16;;;16.99;37.18
29383;BME280;16365;51.598;7.668;2023-03-20T12:03:00;101225.41;;;17.01;37.26
29383;BME280;16365;51.598;7.668;2023-03-20T12:05:32;101218.97;;;17.00;37.18
29383;BME280;16365;51.598;7.668;2023-03-20T12:08:09;101222.59;;;17.01;36.82
29383;BME280;16365;51.598;7.668;2023-03-20T12:10:41;101225.50;;;17.04;37.20
29383;BME280;16365;51.598;7.668;2023-03-20T12:13:19;101219.91;;;17.04;37.11
29383;BME280;16365;51.598;7.668;2023-03-20T12:15:56;101217.91;;;17.05;36.77
29383;BME280;16365;51.598;7.668;2023-03-20T12:18:34;101220.81;;;17.08;36.56
29383;BME280;16365;51.598;7.668;2023-03-20T12:21:09;101219.25;;;17.11;36.58
29383;BME280;16365;51.598;7.668;2023-03-20T12:23:50;101220.91;;;17.12;36.58
29383;BME280;16365;51.598;7.668;2023-03-20T12:29:11;101212.94;;;17.14;36.54
29383;BME280;16365;51.598;7.668;2023-03-20T12:31:51;101213.38;;;17.16;36.84
29383;BME280;16365;51.598;7.668;2023-03-20T12:36:55;101218.28;;;17.19;37.08
29383;BME280;16365;51.598;7.668;2023-03-20T12:39:32;101223.06;;;17.18;35.87
29383;BME280;16365;51.598;7.668;2023-03-20T12:45:03;101223.50;;;17.20;36.19
29383;BME280;16365;51.598;7.668;2023-03-20T12:48:08;101215.03;;;17.17;36.18
29383;BME280;16365;51.598;7.668;2023-03-20T12:50:46;101222.38;;;17.21;36.39
29383;BME280;16365;51.598;7.668;2023-03-20T12:53:52;101217.91;;;17.20;36.38
29383;BME280;16365;51.598;7.668;2023-03-20T12:56:38;101221.63;;;17.25;36.65
29383;BME280;16365;51.598;7.668;2023-03-20T12:59:50;101222.44;;;17.25;36.36
29383;BME280;16365;51.598;7.668;2023-03-20T13:02:33;101226.50;;;17.28;36.10
29383;BME280;16365;51.598;7.668;2023-03-20T13:10:38;101225.50;;;17.20;36.35
29383;BME280;16365;51.598;7.668;2023-03-20T13:13:17;101217.75;;;17.13;36.73
29383;BME280;16365;51.598;7.668;2023-03-20T13:15:55;101218.91;;;17.12;36.93
29383;BME280;16365;51.598;7.668;2023-03-20T13:19:10;101227.59;;;17.07;36.89
29383;BME280;16365;51.598;7.668;2023-03-20T13:25:03;101229.81;;;17.02;37.27
29383;BME280;16365;51.598;7.668;2023-03-20T13:27:43;101234.06;;;16.95;36.57
29383;BME280;16365;51.598;7.668;2023-03-20T13:36:02;101226.25;;;16.73;37.67
29383;BME280;16365;51.598;7.668;2023-03-20T13:38:39;101209.66;;;16.68;37.24
29383;BME280;16365;51.598;7.668;2023-03-20T13:41:07;101216.00;;;16.65;37.70
29383;BME280;16365;51.598;7.668;2023-03-20T13:43:39;101217.44;;;16.59;37.56
29383;BME280;16365;51.598;7.668;2023-03-20T13:49:20;101212.97;;;16.58;38.35
29383;BME280;16365;51.598;7.668;2023-03-20T13:51:59;101197.00;;;16.58;38.00
29383;BME280;16365;51.598;7.668;2023-03-20T13:54:45;101203.50;;;16.62;37.92
29383;BME280;16365;51.598;7.668;2023-03-20T14:00:17;101202.53;;;16.70;38.14
29383;BME280;16365;51.598;7.668;2023-03-20T14:03:07;101201.50;;;16.75;37.95
29383;BME280;16365;51.598;7.668;2023-03-20T14:05:39;101206.84;;;16.80;38.20
29383;BME280;16365;51.598;7.668;2023-03-20T14:11:11;101200.16;;;16.85;38.21
29383;BME280;16365;51.598;7.668;2023-03-20T14:13:44;101202.25;;;16.88;38.15
29383;BME280;16365;51.598;7.668;2023-03-20T14:16:13;101201.53;;;16.91;38.27
29383;BME280;16365;51.598;7.668;2023-03-20T14:18:43;101200.81;;;16.94;38.15
29383;BME280;16365;51.598;7.668;2023-03-20T14:21:13;101195.22;;;16.94;37.74
29383;BME280;16365;51.598;7.668;2023-03-20T14:23:47;101196.03;;;16.94;37.46
29383;BME280;16365;51.598;7.668;2023-03-20T14:29:00;101191.50;;;16.90;38.02
29383;BME280;16365;51.598;7.668;2023-03-20T14:31:32;101186.34;;;16.92;38.33
29383;BME280;16365;51.598;7.668;2023-03-20T14:44:54;101179.75;;;16.84;38.45
29383;BME280;16365;51.598;7.668;2023-03-20T14:57:52;101170.59;;;16.72;38.96
29383;BME280;16365;51.598;7.668;2023-03-20T15:00:24;101170.59;;;16.72;38.98
29383;BME280;16365;51.598;7.668;2023-03-20T15:03:10;101173.25;;;16.68;39.44
29383;BME280;16365;51.598;7.668;2023-03-20T15:05:39;101167.66;;;16.68;39.42
29383;BME280;16365;51.598;7.668;2023-03-20T15:08:09;101163.97;;;16.64;39.59